Dades meteomassalio
Diari Summary for Octubre 27, 2017 Units:  Metric    English   Both
« Previous Day
Next Day »
Diari Semanal Mensual Anual Personalitzat
  Maxima: Minima: Mijana:
Temperatura: 24.4 °C 5.0 °C 15 °C
Rosada: 11.9 °C -5.1 °C 6.4 °C
Humitat: 76 % 40 % 58 %
Velocitat del vent: 51.8 km/h 0.0 km/h 20.4 km/h
Racha vent: 51.8 km/h - -
Vent:- - SSW
Pressio: 1030.7 hPa 1026.6 hPa -
Pluja: 0.0 mm    
Historical Graphs
 
 
Tabular Data for Octubre 27, 2017
Time Temperature Dew Point Pressure Wind Wind Speed Wind Gust Humidity Rainfall Rate (Hourly) solar Conditions
00:03 8.9 °C 3.5 °C 1030.7 hPa Calm     69 % 0.0 mm 0.0 W/m2 CLR
00:08 8.3 °C 3.0 °C 1030.7 hPa Calm     69 % 0.0 mm 0.0 W/m2 CLR
00:13 8.3 °C 3.2 °C 1030.7 hPa Calm     70 % 0.0 mm 0.0 W/m2 CLR
00:18 8.3 °C 3.2 °C 1030.7 hPa Calm     70 % 0.0 mm 0.0 W/m2 CLR
00:24 8.3 °C 3.6 °C 1030.7 hPa Calm     72 % 0.0 mm 0.0 W/m2 CLR
00:29 8.3 °C 3.6 °C 1030.7 hPa Calm     72 % 0.0 mm 0.0 W/m2 CLR
00:34 8.9 °C 4.1 °C 1030.7 hPa Calm     72 % 0.0 mm 0.0 W/m2 CLR
00:39 8.3 °C 3.6 °C 1030.7 hPa Calm     72 % 0.0 mm 0.0 W/m2 CLR
00:44 8.3 °C 3.6 °C 1030.7 hPa Calm     72 % 0.0 mm 0.0 W/m2 CLR
00:49 8.3 °C 3.6 °C 1030.7 hPa Calm     72 % 0.0 mm 0.0 W/m2 CLR
00:54 7.8 °C 3.1 °C 1030.7 hPa Calm     72 % 0.0 mm 0.0 W/m2 CLR
00:59 7.8 °C 3.1 °C 1030.7 hPa Calm     72 % 0.0 mm 0.0 W/m2 CLR
01:04 7.8 °C 3.4 °C 1030.7 hPa SE 3.7 km/h 3.7 km/h 74 % 0.0 mm 0.0 W/m2 CLR
01:09 7.8 °C 3.4 °C 1030.7 hPa SSE 9.3 km/h 9.3 km/h 74 % 0.0 mm 0.0 W/m2 CLR
01:14 8.3 °C 3.9 °C 1030.7 hPa Calm     74 % 0.0 mm 0.0 W/m2 CLR
01:24 7.8 °C 3.4 °C 1030.7 hPa Calm     74 % 0.0 mm 0.0 W/m2 CLR
01:29 7.8 °C 3.6 °C 1030.7 hPa Calm     75 % 0.0 mm 0.0 W/m2 CLR
01:34 7.2 °C 3.3 °C 1030.7 hPa SE 6.4 km/h 6.4 km/h 76 % 0.0 mm 0.0 W/m2 CLR
01:39 7.2 °C 3.1 °C 1030.7 hPa SE 7.4 km/h 7.4 km/h 75 % 0.0 mm 0.0 W/m2 CLR
01:44 7.2 °C 2.9 °C 1030.7 hPa SE 4.8 km/h 4.8 km/h 74 % 0.0 mm 0.0 W/m2 CLR
01:49 7.8 °C 3.4 °C 1030.7 hPa Calm     74 % 0.0 mm 0.0 W/m2 CLR
01:54 7.8 °C 3.4 °C 1030.7 hPa SSE 8.0 km/h 8.0 km/h 74 % 0.0 mm 0.0 W/m2 CLR
01:59 8.3 °C 3.8 °C 1030.7 hPa SSE 5.6 km/h 5.6 km/h 73 % 0.0 mm 0.0 W/m2 CLR
02:04 8.3 °C 3.8 °C 1030.7 hPa South 7.4 km/h 7.4 km/h 73 % 0.0 mm 0.0 W/m2 CLR
02:09 7.8 °C 3.2 °C 1030.7 hPa Calm     73 % 0.0 mm 0.0 W/m2 CLR
02:14 7.8 °C 3.1 °C 1030.7 hPa Calm     72 % 0.0 mm 0.0 W/m2 CLR
02:19 7.8 °C 3.1 °C 1030.7 hPa Calm     72 % 0.0 mm 0.0 W/m2 CLR
02:24 7.8 °C 3.2 °C 1030.7 hPa Calm     73 % 0.0 mm 0.0 W/m2 CLR
02:29 7.8 °C 3.2 °C 1030.7 hPa Calm     73 % 0.0 mm 0.0 W/m2 CLR
02:34 7.8 °C 3.2 °C 1030.7 hPa Calm     73 % 0.0 mm 0.0 W/m2 CLR
02:39 7.2 °C 2.9 °C 1030.7 hPa Calm     74 % 0.0 mm 0.0 W/m2 CLR
02:44 7.2 °C 2.9 °C 1030.4 hPa Calm     74 % 0.0 mm 0.0 W/m2 CLR
02:49 7.8 °C 3.4 °C 1030.4 hPa Calm     74 % 0.0 mm 0.0 W/m2 CLR
02:54 7.8 °C 3.4 °C 1030.4 hPa Calm     74 % 0.0 mm 0.0 W/m2 CLR
02:59 7.8 °C 3.4 °C 1030.4 hPa Calm     74 % 0.0 mm 0.0 W/m2 CLR
03:04 7.8 °C 3.4 °C 1030.4 hPa Calm     74 % 0.0 mm 0.0 W/m2 CLR
03:09 8.3 °C 3.9 °C 1030.4 hPa Calm     74 % 0.0 mm 0.0 W/m2 CLR
03:14 8.3 °C 3.9 °C 1030.4 hPa Calm     74 % 0.0 mm 0.0 W/m2 CLR
03:19 7.8 °C 3.4 °C 1030.4 hPa Calm     74 % 0.0 mm 0.0 W/m2 CLR
03:24 7.8 °C 3.4 °C 1030.4 hPa Calm     74 % 0.0 mm 0.0 W/m2 CLR
03:29 7.2 °C 2.9 °C 1030.4 hPa Calm     74 % 0.0 mm 0.0 W/m2 CLR
03:34 7.2 °C 2.7 °C 1030.4 hPa Calm     73 % 0.0 mm 0.0 W/m2 CLR
03:39 7.2 °C 2.7 °C 1030.4 hPa Calm     73 % 0.0 mm 0.0 W/m2 CLR
03:44 7.8 °C 3.2 °C 1030.4 hPa Calm     73 % 0.0 mm 0.0 W/m2 CLR
03:49 7.8 °C 3.2 °C 1030.4 hPa Calm     73 % 0.0 mm 0.0 W/m2 CLR
03:54 7.8 °C 3.2 °C 1030.0 hPa Calm     73 % 0.0 mm 0.0 W/m2 CLR
03:59 8.3 °C 3.8 °C 1030.0 hPa Calm     73 % 0.0 mm 0.0 W/m2 CLR
04:04 7.8 °C 3.2 °C 1030.0 hPa Calm     73 % 0.0 mm 0.0 W/m2 CLR
04:09 7.8 °C 3.2 °C 1030.0 hPa Calm     73 % 0.0 mm 0.0 W/m2 CLR
04:14 7.8 °C 3.2 °C 1030.0 hPa Calm     73 % 0.0 mm 0.0 W/m2 CLR
04:19 7.8 °C 3.2 °C 1030.0 hPa Calm     73 % 0.0 mm 0.0 W/m2 CLR
04:24 7.8 °C 3.4 °C 1030.0 hPa Calm     74 % 0.0 mm 0.0 W/m2 CLR
04:29 7.2 °C 2.9 °C 1030.0 hPa Calm     74 % 0.0 mm 0.0 W/m2 CLR
04:34 7.2 °C 3.1 °C 1030.0 hPa Calm     75 % 0.0 mm 0.0 W/m2 CLR
04:39 7.2 °C 3.1 °C 1029.7 hPa Calm     75 % 0.0 mm 0.0 W/m2 CLR
04:44 7.2 °C 3.1 °C 1030.0 hPa Calm     75 % 0.0 mm 0.0 W/m2 CLR
04:49 7.2 °C 3.1 °C 1029.7 hPa SE 1.6 km/h   75 % 0.0 mm 0.0 W/m2 CLR
04:54 7.2 °C 2.9 °C 1029.7 hPa ESE 5.6 km/h 5.6 km/h 74 % 0.0 mm 0.0 W/m2 CLR
04:59 7.2 °C 2.9 °C 1029.7 hPa ESE 7.4 km/h 7.4 km/h 74 % 0.0 mm 0.0 W/m2 CLR
05:04 7.2 °C 2.7 °C 1029.7 hPa SE 5.6 km/h 5.6 km/h 73 % 0.0 mm 0.0 W/m2 CLR
05:09 7.2 °C 2.3 °C 1029.7 hPa Calm     71 % 0.0 mm 0.0 W/m2 CLR
05:14 7.2 °C 1.9 °C 1029.7 hPa Calm     69 % 0.0 mm 0.0 W/m2 CLR
05:19 6.7 °C 1.2 °C 1029.7 hPa Calm     68 % 0.0 mm 0.0 W/m2 CLR
05:24 6.7 °C 1.2 °C 1029.7 hPa Calm     68 % 0.0 mm 0.0 W/m2 CLR
05:29 6.7 °C 1.2 °C 1029.7 hPa Calm     68 % 0.0 mm 0.0 W/m2 CLR
05:34 6.7 °C 1.2 °C 1029.7 hPa Calm     68 % 0.0 mm 0.0 W/m2 CLR
05:39 6.7 °C 1.4 °C 1029.7 hPa Calm     69 % 0.0 mm 0.0 W/m2 CLR
05:44 6.7 °C 1.4 °C 1029.7 hPa Calm     69 % 0.0 mm 0.0 W/m2 CLR
05:49 6.7 °C 1.4 °C 1029.7 hPa Calm     69 % 0.0 mm 0.0 W/m2 CLR
05:54 6.7 °C 1.6 °C 1029.7 hPa Calm     70 % 0.0 mm 0.0 W/m2 CLR
05:59 6.7 °C 1.6 °C 1029.7 hPa Calm     70 % 0.0 mm 0.0 W/m2 CLR
06:04 7.2 °C 2.1 °C 1029.7 hPa Calm     70 % 0.0 mm 0.0 W/m2 CLR
06:09 7.2 °C 2.3 °C 1029.7 hPa Calm     71 % 0.0 mm 0.0 W/m2 CLR
06:14 7.2 °C 2.3 °C 1029.7 hPa Calm     71 % 0.0 mm 0.0 W/m2 CLR
06:19 6.7 °C 1.8 °C 1029.7 hPa Calm     71 % 0.0 mm 0.0 W/m2 CLR
06:24 6.7 °C 1.8 °C 1029.7 hPa Calm     71 % 0.0 mm 0.0 W/m2 CLR
06:29 6.1 °C 1.1 °C 1029.7 hPa Calm     70 % 0.0 mm 0.0 W/m2 CLR
06:35 6.1 °C 0.8 °C 1029.7 hPa Calm     69 % 0.0 mm 0.0 W/m2 CLR
06:40 6.1 °C 0.8 °C 1029.7 hPa Calm     69 % 0.0 mm 0.0 W/m2 CLR
06:45 6.7 °C 1.4 °C 1029.7 hPa Calm     69 % 0.0 mm 0.0 W/m2 CLR
06:50 7.2 °C 1.9 °C 1030.0 hPa Calm     69 % 0.0 mm 0.0 W/m2 CLR
06:55 7.2 °C 2.1 °C 1030.0 hPa SSW 3.7 km/h   70 % 0.0 mm 0.0 W/m2 CLR
07:00 6.7 °C 1.6 °C 1029.7 hPa Calm     70 % 0.0 mm 0.0 W/m2 CLR
07:05 6.7 °C 1.6 °C 1030.0 hPa SSE 1.6 km/h 1.6 km/h 70 % 0.0 mm 0.0 W/m2 CLR
07:10 6.7 °C 1.6 °C 1030.0 hPa SSE 8.0 km/h 8.0 km/h 70 % 0.0 mm 0.0 W/m2 CLR
07:15 6.7 °C 0.9 °C 1029.7 hPa SSE 7.4 km/h 7.4 km/h 67 % 0.0 mm 0.0 W/m2 CLR
07:20 6.1 °C 0.0 °C 1029.7 hPa South 9.3 km/h 9.3 km/h 65 % 0.0 mm 0.0 W/m2 CLR
07:25 6.1 °C -0.4 °C 1029.7 hPa South 5.6 km/h 5.6 km/h 63 % 0.0 mm 0.0 W/m2 CLR
07:30 6.1 °C -0.8 °C 1029.7 hPa Calm     61 % 0.0 mm 0.0 W/m2 CLR
07:35 6.1 °C -1.1 °C 1029.7 hPa Calm     60 % 0.0 mm 0.0 W/m2 CLR
07:40 5.6 °C -1.8 °C 1029.7 hPa Calm     59 % 0.0 mm 0.0 W/m2 CLR
07:45 5.6 °C -1.6 °C 1029.7 hPa Calm     60 % 0.0 mm 0.0 W/m2 CLR
07:50 5.6 °C -1.6 °C 1029.7 hPa Calm   0.2 km/h 60 % 0.0 mm 0.0 W/m2 CLR
07:55 5.0 °C -2.1 °C 1029.7 hPa SSE 7.4 km/h 7.4 km/h 60 % 0.0 mm 0.0 W/m2 CLR
08:00 5.0 °C -2.1 °C 1029.7 hPa South 5.6 km/h 5.6 km/h 60 % 0.0 mm 0.0 W/m2 CLR
08:05 5.0 °C -2.3 °C 1029.7 hPa South 3.7 km/h 3.7 km/h 59 % 0.0 mm 0.0 W/m2 CLR
08:10 5.0 °C -2.3 °C 1029.7 hPa SSE 5.6 km/h 5.6 km/h 59 % 0.0 mm 0.0 W/m2 CLR
08:15 5.0 °C -2.3 °C 1029.7 hPa SSE 5.6 km/h 5.6 km/h 59 % 0.0 mm 0.0 W/m2 OVC
08:20 5.0 °C -2.3 °C 1029.7 hPa South 7.4 km/h 7.4 km/h 59 % 0.0 mm 0.0 W/m2 OVC
08:25 5.0 °C -2.3 °C 1029.7 hPa South 5.6 km/h 5.6 km/h 59 % 0.0 mm 5.0 W/m2 OVC
08:30 5.0 °C -2.1 °C 1029.7 hPa South 11.1 km/h 11.1 km/h 60 % 0.0 mm 7.0 W/m2 BKN
08:35 5.0 °C -2.3 °C 1029.7 hPa South 14.5 km/h 14.5 km/h 59 % 0.0 mm 12.0 W/m2 BKN
08:40 5.0 °C -3.3 °C 1029.7 hPa SSW 16.7 km/h 16.7 km/h 55 % 0.0 mm 16.0 W/m2 BKN
08:45 5.0 °C -4.3 °C 1029.7 hPa South 16.7 km/h 16.7 km/h 51 % 0.0 mm 19.0 W/m2 BKN
08:50 5.0 °C -4.8 °C 1029.7 hPa SSW 22.2 km/h 22.2 km/h 49 % 0.0 mm 25.0 W/m2 BKN
08:55 5.0 °C -5.1 °C 1029.7 hPa SSW 22.2 km/h 22.2 km/h 48 % 0.0 mm 30.0 W/m2 BKN
09:00 5.6 °C -4.6 °C 1029.7 hPa SSW 19.3 km/h 19.3 km/h 48 % 0.0 mm 37.0 W/m2 BKN
09:05 5.6 °C -4.9 °C 1029.7 hPa SSW 16.7 km/h 16.7 km/h 47 % 0.0 mm 47.0 W/m2 SCT
09:10 6.1 °C -4.4 °C 1029.7 hPa SSW 18.5 km/h 18.5 km/h 47 % 0.0 mm 56.0 W/m2 SCT
09:15 6.1 °C -4.7 °C 1030.0 hPa SSW 14.8 km/h 14.8 km/h 46 % 0.0 mm 69.0 W/m2 FEW
09:20 6.1 °C -4.7 °C 1030.0 hPa SSW 9.7 km/h 9.7 km/h 46 % 0.0 mm 70.0 W/m2 FEW
09:25 6.7 °C -4.2 °C 1030.0 hPa SSW 16.7 km/h 16.7 km/h 46 % 0.0 mm 93.0 W/m2 FEW
09:30 7.2 °C -3.3 °C 1029.7 hPa SSW 22.5 km/h 22.5 km/h 47 % 0.0 mm 107.0 W/m2 CLR
09:35 7.2 °C -3.7 °C 1030.0 hPa South 22.2 km/h 22.2 km/h 46 % 0.0 mm 125.0 W/m2 CLR
09:40 8.9 °C -2.1 °C 1030.0 hPa SW 25.9 km/h 25.9 km/h 46 % 0.0 mm 141.0 W/m2 CLR
09:45 11.1 °C -0.4 °C 1030.0 hPa SSW 31.5 km/h 31.5 km/h 45 % 0.0 mm 156.0 W/m2 CLR
09:50 12.8 °C 1.1 °C 1030.0 hPa SSW 24.1 km/h 24.1 km/h 45 % 0.0 mm 141.0 W/m2 CLR
09:55 16.1 °C 4.2 °C 1030.0 hPa SW 25.9 km/h 25.9 km/h 45 % 0.0 mm 158.0 W/m2 CLR
10:00 17.2 °C 5.2 °C 1030.0 hPa South 20.4 km/h 20.4 km/h 45 % 0.0 mm 139.0 W/m2 CLR
10:05 17.8 °C 5.7 °C 1030.0 hPa South 14.8 km/h 14.8 km/h 45 % 0.0 mm 220.0 W/m2 CLR
10:10 18.3 °C 6.2 °C 1030.0 hPa SSW 18.5 km/h 18.5 km/h 45 % 0.0 mm 234.0 W/m2 CLR
10:15 18.3 °C 6.2 °C 1030.0 hPa South 11.1 km/h 11.1 km/h 45 % 0.0 mm 246.0 W/m2 CLR
10:20 18.3 °C 6.5 °C 1030.0 hPa SW 13.0 km/h 13.0 km/h 46 % 0.0 mm 260.0 W/m2 CLR
10:25 18.9 °C 7.0 °C 1030.0 hPa SSW 17.7 km/h 17.7 km/h 46 % 0.0 mm 274.0 W/m2 CLR
10:30 18.9 °C 6.7 °C 1030.0 hPa SSW 29.6 km/h 29.6 km/h 45 % 0.0 mm 288.0 W/m2 CLR
10:35 19.4 °C 7.2 °C 1030.0 hPa SSW 24.1 km/h 24.1 km/h 45 % 0.0 mm 302.0 W/m2 CLR
10:40 19.4 °C 7.2 °C 1030.0 hPa SSW 33.3 km/h 33.3 km/h 45 % 0.0 mm 316.0 W/m2 CLR
10:45 19.4 °C 7.2 °C 1030.0 hPa SW 27.8 km/h 27.8 km/h 45 % 0.0 mm 329.0 W/m2 CLR
10:50 20.0 °C 7.7 °C 1030.0 hPa SW 20.9 km/h 20.9 km/h 45 % 0.0 mm 341.0 W/m2 CLR
10:55 20.0 °C 7.7 °C 1030.0 hPa SSW 22.2 km/h 22.2 km/h 45 % 0.0 mm 352.0 W/m2 CLR
11:00 20.0 °C 7.7 °C 1029.7 hPa SW 31.5 km/h 31.5 km/h 45 % 0.0 mm 367.0 W/m2 CLR
11:05 20.6 °C 7.9 °C 1029.7 hPa SW 24.1 km/h 24.1 km/h 44 % 0.0 mm 378.0 W/m2 CLR
11:10 20.6 °C 7.9 °C 1029.7 hPa SSW 27.8 km/h 27.8 km/h 44 % 0.0 mm 387.0 W/m2 CLR
11:15 20.6 °C 7.9 °C 1029.7 hPa SW 20.4 km/h 20.4 km/h 44 % 0.0 mm 397.0 W/m2 CLR
11:20 21.1 °C 8.4 °C 1029.7 hPa SSW 29.6 km/h 29.6 km/h 44 % 0.0 mm 410.0 W/m2 CLR
11:25 21.1 °C 8.4 °C 1029.7 hPa SW 24.1 km/h 24.1 km/h 44 % 0.0 mm 422.0 W/m2 CLR
11:30 21.1 °C 8.1 °C 1029.7 hPa South 31.5 km/h 31.5 km/h 43 % 0.0 mm 434.0 W/m2 CLR
11:35 21.1 °C 7.7 °C 1029.7 hPa SSW 22.5 km/h 22.5 km/h 42 % 0.0 mm 443.0 W/m2 CLR
11:40 21.7 °C 8.2 °C 1029.7 hPa SW 35.2 km/h 35.2 km/h 42 % 0.0 mm 454.0 W/m2 CLR
11:45 22.2 °C 8.3 °C 1029.3 hPa WSW 37.0 km/h 37.0 km/h 41 % 0.0 mm 466.0 W/m2 CLR
11:50 22.2 °C 7.9 °C 1029.7 hPa SW 25.9 km/h 25.9 km/h 40 % 0.0 mm 473.0 W/m2 CLR
11:55 22.2 °C 7.9 °C 1029.7 hPa SW 33.3 km/h 33.3 km/h 40 % 0.0 mm 482.0 W/m2 CLR
12:00 22.8 °C 8.4 °C 1029.3 hPa SW 37.0 km/h 37.0 km/h 40 % 0.0 mm 490.0 W/m2 CLR
12:05 22.8 °C 8.4 °C 1029.7 hPa SW 35.2 km/h 35.2 km/h 40 % 0.0 mm 501.0 W/m2 CLR
12:10 22.8 °C 8.4 °C 1029.7 hPa SW 20.9 km/h 20.9 km/h 40 % 0.0 mm 508.0 W/m2 CLR
12:15 23.3 °C 8.9 °C 1029.7 hPa WSW 35.4 km/h 35.4 km/h 40 % 0.0 mm 512.0 W/m2 CLR
12:20 23.3 °C 8.9 °C 1029.7 hPa SSW 27.8 km/h 27.8 km/h 40 % 0.0 mm 519.0 W/m2 CLR
12:25 23.3 °C 8.9 °C 1029.3 hPa West 31.5 km/h 31.5 km/h 40 % 0.0 mm 526.0 W/m2 CLR
12:30 23.3 °C 8.9 °C 1029.3 hPa SSW 42.6 km/h 42.6 km/h 40 % 0.0 mm 531.0 W/m2 CLR
12:36 23.3 °C 9.3 °C 1029.3 hPa WSW 27.8 km/h 27.8 km/h 41 % 0.0 mm 538.0 W/m2 CLR
12:41 23.3 °C 9.3 °C 1029.3 hPa WSW 40.7 km/h 40.7 km/h 41 % 0.0 mm 540.0 W/m2 CLR
12:46 23.9 °C 9.8 °C 1029.3 hPa WSW 44.4 km/h 44.4 km/h 41 % 0.0 mm 541.0 W/m2 CLR
12:51 23.9 °C 9.8 °C 1029.3 hPa SSW 38.9 km/h 38.9 km/h 41 % 0.0 mm 548.0 W/m2 CLR
12:56 23.9 °C 9.8 °C 1029.0 hPa SSW 42.6 km/h 42.6 km/h 41 % 0.0 mm 550.0 W/m2 CLR
13:01 23.9 °C 9.8 °C 1029.0 hPa SW 31.5 km/h 31.5 km/h 41 % 0.0 mm 555.0 W/m2 CLR
13:06 23.9 °C 9.8 °C 1029.0 hPa SW 35.2 km/h 35.2 km/h 41 % 0.0 mm 559.0 W/m2 CLR
13:11 23.9 °C 9.8 °C 1029.0 hPa SSW 40.7 km/h 40.7 km/h 41 % 0.0 mm 559.0 W/m2 CLR
13:16 23.9 °C 9.8 °C 1029.0 hPa SW 31.5 km/h 31.5 km/h 41 % 0.0 mm 561.0 W/m2 CLR
13:21 23.9 °C 9.8 °C 1028.7 hPa SSW 31.5 km/h 31.5 km/h 41 % 0.0 mm 561.0 W/m2 CLR
13:26 23.9 °C 9.8 °C 1028.7 hPa SSW 35.4 km/h 35.4 km/h 41 % 0.0 mm 564.0 W/m2 CLR
13:31 24.4 °C 10.3 °C 1028.7 hPa SSW 50.0 km/h 50.0 km/h 41 % 0.0 mm 555.0 W/m2 CLR
13:36 24.4 °C 10.3 °C 1028.7 hPa SW 33.3 km/h 33.3 km/h 41 % 0.0 mm 566.0 W/m2 CLR
13:41 24.4 °C 10.3 °C 1028.3 hPa SW 38.9 km/h 38.9 km/h 41 % 0.0 mm 570.0 W/m2 CLR
13:46 24.4 °C 10.3 °C 1028.3 hPa SSW 38.9 km/h 38.9 km/h 41 % 0.0 mm 570.0 W/m2 CLR
13:51 24.4 °C 10.3 °C 1028.3 hPa SW 42.6 km/h 42.6 km/h 41 % 0.0 mm 559.0 W/m2 CLR
13:56 24.4 °C 10.3 °C 1028.3 hPa WSW 50.0 km/h 50.0 km/h 41 % 0.0 mm 563.0 W/m2 CLR
14:01 24.4 °C 10.3 °C 1028.3 hPa SSW 44.4 km/h 44.4 km/h 41 % 0.0 mm 559.0 W/m2 CLR
14:06 24.4 °C 10.7 °C 1028.0 hPa SSW 42.6 km/h 42.6 km/h 42 % 0.0 mm 559.0 W/m2 CLR
14:11 24.4 °C 10.3 °C 1028.0 hPa SW 42.6 km/h 42.6 km/h 41 % 0.0 mm 563.0 W/m2 CLR
14:16 24.4 °C 10.3 °C 1028.0 hPa SW 37.0 km/h 37.0 km/h 41 % 0.0 mm 559.0 W/m2 CLR
14:21 24.4 °C 10.3 °C 1027.7 hPa WSW 31.5 km/h 31.5 km/h 41 % 0.0 mm 559.0 W/m2 CLR
14:26 24.4 °C 10.3 °C 1027.7 hPa SW 38.9 km/h 38.9 km/h 41 % 0.0 mm 552.0 W/m2 CLR
14:31 24.4 °C 10.3 °C 1027.7 hPa SW 50.0 km/h 50.0 km/h 41 % 0.0 mm 550.0 W/m2 CLR
14:36 24.4 °C 10.3 °C 1027.7 hPa SW 42.6 km/h 42.6 km/h 41 % 0.0 mm 540.0 W/m2 CLR
14:41 24.4 °C 10.3 °C 1027.7 hPa WSW 46.3 km/h 46.3 km/h 41 % 0.0 mm 536.0 W/m2 CLR
14:46 24.4 °C 10.3 °C 1027.7 hPa SW 44.4 km/h 44.4 km/h 41 % 0.0 mm 529.0 W/m2 CLR
14:56 24.4 °C 10.3 °C 1027.3 hPa SW 37.0 km/h 37.0 km/h 41 % 0.0 mm 527.0 W/m2 CLR
15:01 24.4 °C 10.3 °C 1027.3 hPa SW 33.3 km/h 33.3 km/h 41 % 0.0 mm 522.0 W/m2 CLR
15:06 24.4 °C 10.7 °C 1027.3 hPa SW 42.6 km/h 42.6 km/h 42 % 0.0 mm 519.0 W/m2 CLR
15:11 24.4 °C 11.1 °C 1027.3 hPa West 40.7 km/h 40.7 km/h 43 % 0.0 mm 508.0 W/m2 CLR
15:16 23.9 °C 10.9 °C 1027.3 hPa WSW 46.3 km/h 46.3 km/h 44 % 0.0 mm 501.0 W/m2 CLR
15:21 23.9 °C 11.2 °C 1027.0 hPa WSW 40.7 km/h 40.7 km/h 45 % 0.0 mm 490.0 W/m2 CLR
15:26 23.9 °C 11.2 °C 1027.0 hPa SSW 37.0 km/h 37.0 km/h 45 % 0.0 mm 489.0 W/m2 CLR
15:31 23.9 °C 11.2 °C 1027.0 hPa SSW 38.9 km/h 38.9 km/h 45 % 0.0 mm 480.0 W/m2 CLR
15:36 23.9 °C 11.6 °C 1027.0 hPa SW 33.3 km/h 33.3 km/h 46 % 0.0 mm 473.0 W/m2 CLR
15:41 23.9 °C 11.9 °C 1027.0 hPa WSW 40.7 km/h 40.7 km/h 47 % 0.0 mm 464.0 W/m2 CLR
15:46 23.3 °C 11.7 °C 1027.0 hPa WSW 35.2 km/h 35.2 km/h 48 % 0.0 mm 448.0 W/m2 CLR
15:51 23.3 °C 11.7 °C 1027.0 hPa SW 38.9 km/h 38.9 km/h 48 % 0.0 mm 439.0 W/m2 CLR
15:56 23.3 °C 11.7 °C 1027.0 hPa SW 27.8 km/h 27.8 km/h 48 % 0.0 mm 432.0 W/m2 CLR
16:01 23.3 °C 11.7 °C 1027.0 hPa WSW 24.1 km/h 24.1 km/h 48 % 0.0 mm 420.0 W/m2 CLR
16:06 23.3 °C 11.7 °C 1027.0 hPa West 32.2 km/h 32.2 km/h 48 % 0.0 mm 411.0 W/m2 CLR
16:11 23.3 °C 11.7 °C 1026.6 hPa West 27.4 km/h 27.4 km/h 48 % 0.0 mm 397.0 W/m2 CLR
16:16 23.3 °C 11.7 °C 1027.0 hPa SW 38.9 km/h 38.9 km/h 48 % 0.0 mm 388.0 W/m2 CLR
16:21 23.3 °C 11.7 °C 1027.0 hPa West 35.2 km/h 35.2 km/h 48 % 0.0 mm 380.0 W/m2 CLR
16:26 23.3 °C 11.7 °C 1027.0 hPa WSW 31.5 km/h 31.5 km/h 48 % 0.0 mm 366.0 W/m2 CLR
16:31 22.8 °C 11.2 °C 1027.0 hPa WSW 33.8 km/h 33.8 km/h 48 % 0.0 mm 353.0 W/m2 CLR
16:36 22.8 °C 11.2 °C 1027.0 hPa West 27.8 km/h 27.8 km/h 48 % 0.0 mm 338.0 W/m2 CLR
16:41 22.8 °C 11.5 °C 1026.6 hPa SW 29.6 km/h 29.6 km/h 49 % 0.0 mm 334.0 W/m2 CLR
16:46 22.8 °C 11.5 °C 1027.0 hPa WSW 40.7 km/h 40.7 km/h 49 % 0.0 mm 323.0 W/m2 CLR
16:51 22.8 °C 11.5 °C 1027.0 hPa SW 37.0 km/h 37.0 km/h 49 % 0.0 mm 306.0 W/m2 CLR
17:01 22.8 °C 11.5 °C 1027.0 hPa WSW 48.1 km/h 48.1 km/h 49 % 0.0 mm 281.0 W/m2 CLR
17:06 22.2 °C 11.3 °C 1027.0 hPa WSW 50.0 km/h 50.0 km/h 50 % 0.0 mm 267.0 W/m2 CLR
17:11 22.2 °C 11.3 °C 1027.0 hPa WNW 40.7 km/h 40.7 km/h 50 % 0.0 mm 251.0 W/m2 CLR
17:16 22.2 °C 11.3 °C 1027.0 hPa WSW 40.2 km/h 40.2 km/h 50 % 0.0 mm 236.0 W/m2 CLR
17:21 22.2 °C 11.6 °C 1027.0 hPa West 51.8 km/h 51.8 km/h 51 % 0.0 mm 220.0 W/m2 CLR
17:26 22.2 °C 11.6 °C 1027.0 hPa SW 45.1 km/h 45.1 km/h 51 % 0.0 mm 209.0 W/m2 CLR
17:31 21.7 °C 11.1 °C 1027.0 hPa West 27.8 km/h 27.8 km/h 51 % 0.0 mm 186.0 W/m2 CLR
17:32 21.7 °C 11.1 °C 1027.0 hPa SSW 27.4 km/h 27.4 km/h 51 % 0.0 mm 186.0 W/m2 CLR
17:37 21.7 °C 11.1 °C 1027.0 hPa SW 33.3 km/h 33.3 km/h 51 % 0.0 mm 171.0 W/m2 CLR
17:42 21.7 °C 11.1 °C 1027.0 hPa WSW 50.0 km/h 50.0 km/h 51 % 0.0 mm 155.0 W/m2 CLR
17:47 21.7 °C 11.4 °C 1027.0 hPa SSW 18.5 km/h 18.5 km/h 52 % 0.0 mm 139.0 W/m2 CLR
17:52 21.7 °C 11.4 °C 1027.0 hPa SW 35.2 km/h 35.2 km/h 52 % 0.0 mm 127.0 W/m2 CLR
17:57 21.1 °C 10.9 °C 1027.0 hPa WSW 33.8 km/h 33.8 km/h 52 % 0.0 mm 111.0 W/m2 CLR
18:02 21.1 °C 11.2 °C 1027.0 hPa SW 33.8 km/h 33.8 km/h 53 % 0.0 mm 95.0 W/m2 CLR
18:07 21.1 °C 11.2 °C 1027.3 hPa West 31.5 km/h 31.5 km/h 53 % 0.0 mm 77.0 W/m2 FEW
18:12 21.1 °C 10.9 °C 1027.3 hPa SW 46.3 km/h 46.3 km/h 52 % 0.0 mm 69.0 W/m2 FEW
18:17 20.6 °C 10.7 °C 1027.3 hPa SW 37.0 km/h 37.0 km/h 53 % 0.0 mm 53.0 W/m2 SCT
18:22 20.6 °C 10.7 °C 1027.3 hPa WSW 33.8 km/h 33.8 km/h 53 % 0.0 mm 42.0 W/m2 BKN
18:27 20.6 °C 10.9 °C 1027.3 hPa WSW 37.0 km/h 37.0 km/h 54 % 0.0 mm 40.0 W/m2 BKN
18:32 20.0 °C 10.4 °C 1027.7 hPa WSW 42.6 km/h 42.6 km/h 54 % 0.0 mm 30.0 W/m2 BKN
18:37 20.0 °C 10.4 °C 1027.7 hPa WSW 29.6 km/h 29.6 km/h 54 % 0.0 mm 23.0 W/m2 BKN
18:42 20.0 °C 10.4 °C 1027.7 hPa SW 31.5 km/h 31.5 km/h 54 % 0.0 mm 19.0 W/m2 BKN
18:47 20.0 °C 10.7 °C 1027.7 hPa SW 22.2 km/h 22.2 km/h 55 % 0.0 mm 14.0 W/m2 BKN
18:52 19.4 °C 10.2 °C 1027.7 hPa West 30.6 km/h 30.6 km/h 55 % 0.0 mm 11.0 W/m2 BKN
18:57 19.4 °C 10.2 °C 1027.7 hPa SSW 35.2 km/h 35.2 km/h 55 % 0.0 mm 7.0 W/m2 BKN
19:02 19.4 °C 10.2 °C 1027.7 hPa West 37.0 km/h 37.0 km/h 55 % 0.0 mm 5.0 W/m2 OVC
19:07 19.4 °C 10.4 °C 1027.7 hPa West 31.5 km/h 31.5 km/h 56 % 0.0 mm 0.0 W/m2 OVC
19:12 18.9 °C 9.9 °C 1028.0 hPa WSW 33.3 km/h 33.3 km/h 56 % 0.0 mm 0.0 W/m2 CLR
19:17 18.9 °C 9.9 °C 1028.0 hPa WSW 31.5 km/h 31.5 km/h 56 % 0.0 mm 0.0 W/m2 CLR
19:22 18.9 °C 10.2 °C 1028.0 hPa SW 37.0 km/h 37.0 km/h 57 % 0.0 mm 0.0 W/m2 CLR
19:27 18.9 °C 10.2 °C 1028.0 hPa WSW 38.9 km/h 38.9 km/h 57 % 0.0 mm 0.0 W/m2 CLR
19:32 18.9 °C 10.2 °C 1028.0 hPa SW 33.3 km/h 33.3 km/h 57 % 0.0 mm 0.0 W/m2 CLR
19:37 18.9 °C 10.4 °C 1028.0 hPa WSW 29.6 km/h 29.6 km/h 58 % 0.0 mm 0.0 W/m2 CLR
19:42 18.9 °C 10.4 °C 1028.0 hPa SSW 25.9 km/h 25.9 km/h 58 % 0.0 mm 0.0 W/m2 CLR
19:47 18.3 °C 9.9 °C 1028.0 hPa SW 33.3 km/h 33.3 km/h 58 % 0.0 mm 0.0 W/m2 CLR
19:52 18.3 °C 9.9 °C 1028.0 hPa SW 40.7 km/h 40.7 km/h 58 % 0.0 mm 0.0 W/m2 CLR
19:57 18.3 °C 10.2 °C 1028.3 hPa SSW 18.5 km/h 18.5 km/h 59 % 0.0 mm 0.0 W/m2 CLR
20:02 18.3 °C 10.2 °C 1028.3 hPa South 18.5 km/h 18.5 km/h 59 % 0.0 mm 0.0 W/m2 CLR
20:07 18.3 °C 10.2 °C 1028.3 hPa SSW 29.6 km/h 29.6 km/h 59 % 0.0 mm 0.0 W/m2 CLR
20:12 18.3 °C 10.4 °C 1028.3 hPa SW 29.0 km/h 29.0 km/h 60 % 0.0 mm 0.0 W/m2 CLR
20:17 17.8 °C 9.9 °C 1028.3 hPa SW 27.8 km/h 27.8 km/h 60 % 0.0 mm 0.0 W/m2 CLR
20:22 18.3 °C 10.4 °C 1028.7 hPa SSW 22.2 km/h 22.2 km/h 60 % 0.0 mm 0.0 W/m2 CLR
20:27 18.3 °C 10.4 °C 1028.7 hPa SSW 25.9 km/h 25.9 km/h 60 % 0.0 mm 0.0 W/m2 CLR
20:32 17.8 °C 9.9 °C 1028.7 hPa SW 42.6 km/h 42.6 km/h 60 % 0.0 mm 0.0 W/m2 CLR
20:37 18.3 °C 10.4 °C 1028.7 hPa SSW 25.9 km/h 25.9 km/h 60 % 0.0 mm 0.0 W/m2 CLR
20:42 17.8 °C 9.9 °C 1028.7 hPa SW 31.5 km/h 31.5 km/h 60 % 0.0 mm 0.0 W/m2 CLR
20:47 17.8 °C 10.2 °C 1028.7 hPa SSW 24.1 km/h 24.1 km/h 61 % 0.0 mm 0.0 W/m2 CLR
20:52 17.8 °C 10.2 °C 1028.7 hPa SSW 31.5 km/h 31.5 km/h 61 % 0.0 mm 0.0 W/m2 CLR
20:57 17.8 °C 10.2 °C 1028.7 hPa SW 35.2 km/h 35.2 km/h 61 % 0.0 mm 0.0 W/m2 CLR
21:02 17.8 °C 10.4 °C 1028.7 hPa SW 24.1 km/h 24.1 km/h 62 % 0.0 mm 0.0 W/m2 CLR
21:07 17.2 °C 9.9 °C 1028.7 hPa WSW 37.0 km/h 37.0 km/h 62 % 0.0 mm 0.0 W/m2 CLR
21:12 17.2 °C 9.9 °C 1028.7 hPa WSW 31.5 km/h 31.5 km/h 62 % 0.0 mm 0.0 W/m2 CLR
21:17 17.2 °C 9.9 °C 1028.7 hPa WSW 29.6 km/h 29.6 km/h 62 % 0.0 mm 0.0 W/m2 CLR
21:22 17.2 °C 10.1 °C 1028.7 hPa SW 31.5 km/h 31.5 km/h 63 % 0.0 mm 0.0 W/m2 CLR
21:27 17.2 °C 10.1 °C 1028.7 hPa SSW 24.1 km/h 24.1 km/h 63 % 0.0 mm 0.0 W/m2 CLR
21:32 17.2 °C 10.3 °C 1028.7 hPa SSW 38.9 km/h 38.9 km/h 64 % 0.0 mm 0.0 W/m2 CLR
21:37 17.2 °C 10.3 °C 1028.7 hPa SSW 27.8 km/h 27.8 km/h 64 % 0.0 mm 0.0 W/m2 CLR
21:42 17.2 °C 10.3 °C 1028.7 hPa SSW 29.6 km/h 29.6 km/h 64 % 0.0 mm 0.0 W/m2 CLR
21:48 17.2 °C 10.3 °C 1028.7 hPa SSW 25.7 km/h 25.7 km/h 64 % 0.0 mm 0.0 W/m2 CLR
21:53 17.2 °C 10.3 °C 1028.7 hPa SSW 33.3 km/h 33.3 km/h 64 % 0.0 mm 0.0 W/m2 CLR
21:58 17.2 °C 10.3 °C 1028.7 hPa South 25.9 km/h 25.9 km/h 64 % 0.0 mm 0.0 W/m2 CLR
22:03 16.7 °C 9.8 °C 1029.0 hPa SSW 16.7 km/h 16.7 km/h 64 % 0.0 mm 0.0 W/m2 CLR
22:08 16.7 °C 10.1 °C 1029.0 hPa SSW 27.8 km/h 27.8 km/h 65 % 0.0 mm 0.0 W/m2 CLR
22:13 16.7 °C 10.1 °C 1029.0 hPa SW 24.1 km/h 24.1 km/h 65 % 0.0 mm 0.0 W/m2 CLR
22:18 16.7 °C 10.1 °C 1029.0 hPa SSW 24.1 km/h 24.1 km/h 65 % 0.0 mm 0.0 W/m2 CLR
22:23 16.7 °C 10.1 °C 1029.0 hPa SW 22.2 km/h 22.2 km/h 65 % 0.0 mm 0.0 W/m2 CLR
22:28 16.7 °C 10.1 °C 1029.0 hPa SSW 27.8 km/h 27.8 km/h 65 % 0.0 mm 0.0 W/m2 CLR
22:33 16.7 °C 10.1 °C 1029.0 hPa SSW 31.5 km/h 31.5 km/h 65 % 0.0 mm 0.0 W/m2 CLR
22:38 16.7 °C 10.1 °C 1029.0 hPa SSW 31.5 km/h 31.5 km/h 65 % 0.0 mm 0.0 W/m2 CLR
22:43 16.7 °C 10.1 °C 1029.0 hPa SSW 27.8 km/h 27.8 km/h 65 % 0.0 mm 0.0 W/m2 CLR
22:48 16.7 °C 10.1 °C 1029.0 hPa SSW 29.6 km/h 29.6 km/h 65 % 0.0 mm 0.0 W/m2 CLR
22:53 16.7 °C 10.1 °C 1029.0 hPa South 22.2 km/h 22.2 km/h 65 % 0.0 mm 0.0 W/m2 CLR
22:58 16.1 °C 9.5 °C 1029.0 hPa SSW 18.5 km/h 18.5 km/h 65 % 0.0 mm 0.0 W/m2 CLR
23:03 16.1 °C 9.5 °C 1029.0 hPa SSW 30.6 km/h 30.6 km/h 65 % 0.0 mm 0.0 W/m2 CLR
23:08 16.1 °C 9.5 °C 1029.3 hPa SSW 19.3 km/h 19.3 km/h 65 % 0.0 mm 0.0 W/m2 CLR
23:13 16.1 °C 9.8 °C 1029.0 hPa SSW 25.9 km/h 25.9 km/h 66 % 0.0 mm 0.0 W/m2 CLR
23:18 16.1 °C 9.5 °C 1029.0 hPa SSW 22.5 km/h 22.5 km/h 65 % 0.0 mm 0.0 W/m2 CLR
23:23 16.1 °C 9.5 °C 1029.0 hPa SSW 18.5 km/h 18.5 km/h 65 % 0.0 mm 0.0 W/m2 CLR
23:28 16.1 °C 9.5 °C 1029.0 hPa SSW 18.5 km/h 18.5 km/h 65 % 0.0 mm 0.0 W/m2 CLR
23:33 16.1 °C 9.8 °C 1029.3 hPa SW 18.5 km/h 18.5 km/h 66 % 0.0 mm 0.0 W/m2 CLR
23:38 16.1 °C 9.8 °C 1029.0 hPa SSW 22.2 km/h 22.2 km/h 66 % 0.0 mm 0.0 W/m2 CLR
23:43 16.1 °C 9.5 °C 1029.0 hPa South 31.5 km/h 31.5 km/h 65 % 0.0 mm 0.0 W/m2 CLR
23:48 16.1 °C 9.5 °C 1029.0 hPa SW 22.2 km/h 22.2 km/h 65 % 0.0 mm 0.0 W/m2 CLR
23:53 16.1 °C 9.5 °C 1029.0 hPa SSW 16.7 km/h 16.7 km/h 65 % 0.0 mm 0.0 W/m2 CLR
23:54 16.1 °C 9.5 °C 1029.0 hPa South 18.5 km/h 18.5 km/h 65 % 0.0 mm 0.0 W/m2 CLR
23:59 15.6 °C 9.2 °C 1029.0 hPa South 20.4 km/h 20.4 km/h 66 % 0.0 mm 0.0 W/m2 CLR
Lo Temps de Massalio
Compliments of Weather Underground - 1.25 mb